Terminal Aerodrome Forecast
Issued by NWS

Home | Current Version | Previous Version | Text Only | Print | Product List | Glossary On
Versions: 1 2 3 4 5 6 7 8 9 10 11 12 13 14 15 16 17 18 19
176
FTUS43 KMQT 051735
TAFIWD
TAF
KIWD 051735Z 0518/0618 22006KT P6SM FEW015 SCT140
     FM052000 20006KT P6SM BKN120
     FM052300 15007KT P6SM VCSH SCT030 BKN050
     FM060200 15010KT P6SM VCSH OVC030
     FM060600 16013G20KT P6SM BKN025
     FM060800 17013G20KT P6SM BKN015
     FM061500 20011G19KT P6SM OVC020=

USA.gov is the U.S. government's official web portal to all federal, state and local government web resources and services.